| time (UTC) | temp C | wind direction | speed KPH | gust KPH | rain 1hr cm | rain 24hr cm | rain mn cm | humidity % | barometer mb |
| 20260831141554 | 12 | 287 | 14.5 | 24.1 | 0.00 | 0.00 | 0.00 | 63 | 1015.3 |
| 20260831140055 | 11 | 289 | 8.0 | 17.7 | 0.00 | 0.00 | 0.00 | 66 | 1015.3 |
| 20260831134606 | 10 | 296 | 6.4 | 14.5 | 0.00 | 0.00 | 0.00 | 69 | 1015.2 |
| 20260831133056 | 9 | 292 | 4.8 | 14.5 | 0.00 | 0.00 | 0.00 | 71 | 1015.0 |
| 20260831131601 | 8 | 292 | 8.0 | 17.7 | 0.00 | 0.00 | 0.00 | 73 | 1014.7 |
| 20260831130111 | 8 | 286 | 8.0 | 14.5 | 0.00 | 0.00 | 0.00 | 74 | 1014.7 |
| 20260831124553 | 8 | 285 | 8.0 | 14.5 | 0.00 | 0.03 | 0.00 | 74 | 1014.4 |
| 20260831123054 | 8 | 284 | 8.0 | 16.1 | 0.00 | 0.03 | 0.00 | 72 | 1014.1 |
| 20260831121600 | 9 | 293 | 11.3 | 19.3 | 0.00 | 0.03 | 0.00 | 70 | 1013.8 |
| 20260831120059 | 10 | 297 | 14.5 | 20.9 | 0.00 | 0.03 | 0.00 | 69 | 1013.7 |
| 20260831114555 | 10 | 289 | 14.5 | 22.5 | 0.00 | 0.03 | 0.00 | 68 | 1013.8 |
| 20260831113102 | 10 | 289 | 16.1 | 25.7 | 0.00 | 0.03 | 0.00 | 68 | 1013.8 |
| 20260831111555 | 10 | 292 | 14.5 | 25.7 | 0.00 | 0.03 | 0.00 | 67 | 1013.7 |
| 20260831110057 | 10 | 288 | 16.1 | 27.4 | 0.00 | 0.03 | 0.00 | 69 | 1013.7 |
| 20260831104559 | 8 | 288 | 12.9 | 19.3 | 0.00 | 0.03 | 0.00 | 75 | 1013.6 |
| 20260831103055 | 8 | 288 | 8.0 | 17.7 | 0.00 | 0.03 | 0.00 | 75 | 1013.6 |
| 20260831101552 | 8 | 287 | 9.7 | 16.1 | 0.00 | 0.03 | 0.00 | 75 | 1013.3 |
| 20260831100121 | 8 | 283 | 8.0 | 14.5 | 0.00 | 0.03 | 0.00 | 75 | 1013.4 |
| 20260831094555 | 8 | 285 | 6.4 | 11.3 | 0.00 | 0.03 | 0.00 | 73 | 1013.3 |
| 20260831093102 | 9 | 285 | 6.4 | 14.5 | 0.00 | 0.03 | 0.00 | 71 | 1013.4 |
| 20260831091557 | 9 | 289 | 8.0 | 16.1 | 0.00 | 0.03 | 0.00 | 69 | 1013.2 |
| 20260831090114 | 10 | 263 | 4.8 | 17.7 | 0.00 | 0.03 | 0.00 | 68 | 1013.1 |
| 20260831084608 | 9 | 259 | 9.7 | 16.1 | 0.00 | 0.05 | 0.00 | 70 | 1013.1 |
| 20260831083112 | 8 | 257 | 8.0 | 14.5 | 0.00 | 0.05 | 0.00 | 71 | 1012.8 |
| 20260831081602 | 9 | 257 | 8.0 | 14.5 | 0.00 | 0.05 | 0.00 | 70 | 1012.5 |
| 20260831080130 | 9 | 256 | 9.7 | 16.1 | 0.00 | 0.05 | 0.00 | 71 | 1012.3 |
| 20260831074557 | 8 | 255 | 11.3 | 17.7 | 0.00 | 0.05 | 0.00 | 72 | 1012.4 |
| 20260831073103 | 9 | 260 | 12.9 | 19.3 | 0.00 | 0.05 | 0.00 | 71 | 1012.2 |
| 20260831071608 | 8 | 257 | 12.9 | 20.9 | 0.00 | 0.05 | 0.00 | 73 | 1012.2 |
| 20260831070055 | 8 | 255 | 12.9 | 17.7 | 0.00 | 0.05 | 0.00 | 74 | 1012.2 |
| 20260831064602 | 8 | 257 | 9.7 | 14.5 | 0.00 | 0.05 | 0.00 | 74 | 1012.3 |
| 20260831063110 | 9 | 257 | 6.4 | 16.1 | 0.00 | 0.05 | 0.00 | 72 | 1012.6 |
| 20260831061555 | 10 | 257 | 11.3 | 19.3 | 0.00 | 0.05 | 0.00 | 70 | 1012.4 |
| 20260831060109 | 10 | 263 | 6.4 | 12.9 | 0.00 | 0.05 | 0.00 | 67 | 1012.5 |
| 20260831054558 | 11 | 263 | 9.7 | 14.5 | 0.00 | 0.05 | 0.05 | 65 | 1012.7 |
| 20260831053126 | 11 | 267 | 9.7 | 17.7 | 0.00 | 0.05 | 0.05 | 64 | 1012.5 |
| 20260831051602 | 11 | 267 | 9.7 | 17.7 | 0.00 | 0.05 | 0.05 | 63 | 1012.4 |
| 20260831044645 | 12 | 267 | 11.3 | 27.4 | 0.00 | 0.08 | 0.05 | 59 | 1012.3 |
| 20260831043055 | 13 | 272 | 14.5 | 32.2 | 0.00 | 0.08 | 0.05 | 56 | 1012.3 |
| 20260831041607 | 13 | 263 | 20.9 | 38.6 | 0.00 | 0.08 | 0.05 | 52 | 1012.2 |
| 20260831040059 | 14 | 267 | 25.7 | 43.5 | 0.00 | 0.08 | 0.05 | 50 | 1012.1 |
| 20260831034555 | 14 | 260 | 22.5 | 38.6 | 0.00 | 0.10 | 0.05 | 49 | 1012.0 |
| 20260831033109 | 15 | 267 | 22.5 | 43.5 | 0.00 | 0.10 | 0.05 | 48 | 1012.0 |
| 20260831031555 | 15 | 261 | 25.7 | 38.6 | 0.00 | 0.10 | 0.05 | 47 | 1011.9 |
| 20260831030058 | 15 | 271 | 22.5 | 38.6 | 0.00 | 0.10 | 0.05 | 48 | 1011.8 |
| 20260831024603 | 15 | 271 | 19.3 | 37.0 | 0.00 | 0.10 | 0.05 | 48 | 1011.6 |
| 20260831023056 | 15 | 263 | 20.9 | 37.0 | 0.00 | 0.10 | 0.05 | 47 | 1011.3 |
| 20260831021557 | 15 | 270 | 25.7 | 45.1 | 0.00 | 0.10 | 0.05 | 46 | 1011.1 |
| 20260831020054 | 15 | 259 | 24.1 | 45.1 | 0.00 | 0.10 | 0.05 | 46 | 1010.9 |
| 20260831014556 | 15 | 267 | 25.7 | 45.1 | 0.00 | 0.10 | 0.05 | 46 | 1010.9 |
| 20260831013105 | 15 | 275 | 25.7 | 46.7 | 0.00 | 0.10 | 0.05 | 45 | 1010.9 |
| 20260831011557 | 16 | 270 | 32.2 | 49.9 | 0.00 | 0.10 | 0.05 | 44 | 1010.9 |
| 20260831010118 | 16 | 262 | 25.7 | 46.7 | 0.00 | 0.10 | 0.05 | 43 | 1011.0 |
| 20260831004557 | 16 | 288 | 27.4 | 48.3 | 0.00 | 0.13 | 0.05 | 44 | 1011.2 |
| 20260831003104 | 16 | 262 | 29.0 | 48.3 | 0.00 | 0.13 | 0.05 | 43 | 1011.1 |
| 20260831001603 | 16 | 275 | 30.6 | 54.7 | 0.00 | 0.13 | 0.05 | 43 | 1011.1 |
| 20260831000106 | 16 | 253 | 29.0 | 53.1 | 0.00 | 0.13 | 0.05 | 43 | 1011.0 |
| 20260830234601 | 17 | 279 | 32.2 | 49.9 | 0.00 | 0.20 | 0.05 | 41 | 1011.0 |
| 20260830233106 | 17 | 265 | 30.6 | 49.9 | 0.00 | 0.20 | 0.05 | 39 | 1011.0 |
| 20260830231607 | 17 | 248 | 33.8 | 53.1 | 0.00 | 0.20 | 0.05 | 41 | 1010.9 |
| 20260830230056 | 17 | 262 | 27.4 | 46.7 | 0.00 | 0.20 | 0.05 | 41 | 1010.8 |
| 20260830224559 | 17 | 288 | 29.0 | 49.9 | 0.00 | 0.20 | 0.05 | 39 | 1010.8 |
| 20260830223103 | 17 | 258 | 24.1 | 53.1 | 0.00 | 0.20 | 0.05 | 41 | 1010.8 |
| 20260830221557 | 17 | 263 | 32.2 | 54.7 | 0.00 | 0.20 | 0.05 | 41 | 1010.9 |
| 20260830220100 | 17 | 268 | 25.7 | 53.1 | 0.00 | 0.20 | 0.05 | 41 | 1011.1 |
| 20260830214553 | 18 | 260 | 29.0 | 49.9 | 0.00 | 0.20 | 0.05 | 40 | 1011.1 |
| 20260830213113 | 16 | 252 | 27.4 | 43.5 | 0.00 | 0.20 | 0.05 | 43 | 1011.3 |
| 20260830211606 | 16 | 240 | 35.4 | 46.7 | 0.00 | 0.20 | 0.05 | 43 | 1011.4 |
| 20260830210056 | 16 | 234 | 33.8 | 48.3 | 0.00 | 0.20 | 0.05 | 43 | 1011.5 |
| 20260830204600 | 17 | 272 | 27.4 | 48.3 | 0.00 | 0.20 | 0.05 | 41 | 1011.5 |
| 20260830203056 | 17 | 274 | 32.2 | 48.3 | 0.00 | 0.20 | 0.05 | 42 | 1011.5 |
| 20260830201603 | 16 | 240 | 27.4 | 48.3 | 0.00 | 0.20 | 0.05 | 43 | 1011.6 |
| 20260830200054 | 17 | 267 | 30.6 | 48.3 | 0.00 | 0.20 | 0.05 | 44 | 1011.6 |
| 20260830194603 | 16 | 261 | 32.2 | 46.7 | 0.00 | 0.20 | 0.05 | 44 | 1011.6 |
| 20260830193056 | 17 | 259 | 32.2 | 51.5 | 0.00 | 0.20 | 0.05 | 42 | 1011.4 |
| 20260830191556 | 18 | 254 | 25.7 | 45.1 | 0.00 | 0.20 | 0.05 | 39 | 1011.3 |
| 20260830190103 | 17 | 262 | 32.2 | 49.9 | 0.00 | 0.20 | 0.05 | 41 | 1011.3 |
| 20260830184557 | 17 | 263 | 29.0 | 46.7 | 0.00 | 0.20 | 0.05 | 41 | 1011.2 |
| 20260830183055 | 17 | 273 | 24.1 | 40.2 | 0.00 | 0.20 | 0.05 | 41 | 1011.1 |
| 20260830181559 | 18 | 244 | 30.6 | 45.1 | 0.00 | 0.20 | 0.05 | 40 | 1011.2 |
| 20260830180100 | 17 | 246 | 25.7 | 38.6 | 0.00 | 0.20 | 0.05 | 40 | 1011.4 |
| 20260830174600 | 17 | 246 | 27.4 | 40.2 | 0.00 | 0.20 | 0.05 | 39 | 1011.2 |
| 20260830173055 | 17 | 243 | 20.9 | 40.2 | 0.00 | 0.20 | 0.05 | 40 | 1011.3 |
| 20260830171602 | 16 | 258 | 29.0 | 41.8 | 0.00 | 0.20 | 0.05 | 41 | 1011.5 |
| 20260830170056 | 17 | 252 | 24.1 | 41.8 | 0.00 | 0.20 | 0.05 | 43 | 1011.5 |
| 20260830164608 | 16 | 259 | 20.9 | 30.6 | 0.00 | 0.20 | 0.05 | 43 | 1011.6 |
| 20260830163103 | 16 | 257 | 19.3 | 27.4 | 0.00 | 0.20 | 0.05 | 51 | 1011.5 |
| 20260830161619 | 15 | 246 | 11.3 | 19.3 | 0.00 | 0.20 | 0.05 | 56 | 1011.6 |
| 20260830160112 | 15 | 248 | 14.5 | 24.1 | 0.00 | 0.20 | 0.05 | 52 | 1012.0 |
| 20260830154610 | 14 | 244 | 6.4 | 14.5 | 0.00 | 0.20 | 0.05 | 54 | 1012.3 |
| 20260830153109 | 14 | 239 | 8.0 | 20.9 | 0.00 | 0.20 | 0.05 | 61 | 1012.1 |
| 20260830151613 | 14 | 252 | 9.7 | 16.1 | 0.00 | 0.20 | 0.05 | 55 | 1012.0 |
| 20260830150121 | 13 | 289 | 9.7 | 16.1 | 0.00 | 0.20 | 0.05 | 64 | 1011.8 |
| 20260830144555 | 12 | 278 | 8.0 | 12.9 | 0.00 | 0.20 | 0.05 | 71 | 1011.9 |
| 20260830143058 | 10 | 275 | 6.4 | 12.9 | 0.00 | 0.20 | 0.05 | 77 | 1011.9 |